Terminal Aerodrome Forecast
Issued by NWS

Home | Current Version | Previous Version | Text Only | Print | Product List | Glossary On
Versions: 1 2 3 4 5 6 7 8 9 10 11 12 13 14 15
000
FTUS43 KDVN 230500
TAFBRL
TAF
KBRL 230520Z 2306/2406 34006KT P6SM SCT250
     FM230900 06007KT P6SM BKN250
     FM231200 10010KT P6SM OVC120
     FM232100 13013KT P6SM VCSH OVC100=

USA.gov is the U.S. government's official web portal to all federal, state and local government web resources and services.